sensor_id;sensor_type;location;lat;lon;timestamp;P1;durP1;ratioP1;P2;durP2;ratioP2
12814;SDS011;6472;52.328;13.070;2023-02-03T00:00:48;2.17;;;1.67;;
12814;SDS011;6472;52.328;13.070;2023-02-03T00:03:16;1.57;;;1.40;;
12814;SDS011;6472;52.328;13.070;2023-02-03T00:05:44;5.90;;;2.17;;
12814;SDS011;6472;52.328;13.070;2023-02-03T00:08:12;2.20;;;1.73;;
12814;SDS011;6472;52.328;13.070;2023-02-03T00:10:43;3.37;;;2.17;;
12814;SDS011;6472;52.328;13.070;2023-02-03T00:13:12;2.23;;;1.53;;
12814;SDS011;6472;52.328;13.070;2023-02-03T00:15:41;4.77;;;1.70;;
12814;SDS011;6472;52.328;13.070;2023-02-03T00:18:09;1.40;;;1.30;;
12814;SDS011;6472;52.328;13.070;2023-02-03T00:20:36;5.07;;;1.57;;
12814;SDS011;6472;52.328;13.070;2023-02-03T00:23:05;8.60;;;2.40;;
12814;SDS011;6472;52.328;13.070;2023-02-03T00:25:33;2.23;;;1.27;;
12814;SDS011;6472;52.328;13.070;2023-02-03T00:28:03;4.73;;;1.80;;
12814;SDS011;6472;52.328;13.070;2023-02-03T00:30:33;2.10;;;1.97;;
12814;SDS011;6472;52.328;13.070;2023-02-03T00:33:01;3.70;;;1.60;;
12814;SDS011;6472;52.328;13.070;2023-02-03T00:35:29;2.47;;;1.83;;
12814;SDS011;6472;52.328;13.070;2023-02-03T00:37:57;2.03;;;1.27;;
12814;SDS011;6472;52.328;13.070;2023-02-03T00:40:25;4.77;;;2.77;;
12814;SDS011;6472;52.328;13.070;2023-02-03T00:42:55;5.57;;;2.63;;
12814;SDS011;6472;52.328;13.070;2023-02-03T00:45:24;6.33;;;1.47;;
12814;SDS011;6472;52.328;13.070;2023-02-03T00:47:52;4.40;;;2.17;;
12814;SDS011;6472;52.328;13.070;2023-02-03T00:50:20;4.77;;;1.17;;
12814;SDS011;6472;52.328;13.070;2023-02-03T00:52:48;3.03;;;1.83;;
12814;SDS011;6472;52.328;13.070;2023-02-03T00:55:16;4.47;;;2.57;;
12814;SDS011;6472;52.328;13.070;2023-02-03T00:57:44;5.07;;;2.00;;
12814;SDS011;6472;52.328;13.070;2023-02-03T01:00:12;1.67;;;1.57;;
12814;SDS011;6472;52.328;13.070;2023-02-03T01:02:42;1.80;;;1.70;;
12814;SDS011;6472;52.328;13.070;2023-02-03T01:05:10;4.03;;;1.93;;
12814;SDS011;6472;52.328;13.070;2023-02-03T01:07:38;11.23;;;2.33;;
12814;SDS011;6472;52.328;13.070;2023-02-03T01:10:07;5.07;;;1.93;;
12814;SDS011;6472;52.328;13.070;2023-02-03T01:12:35;2.47;;;1.83;;
12814;SDS011;6472;52.328;13.070;2023-02-03T01:15:04;2.40;;;1.60;;
12814;SDS011;6472;52.328;13.070;2023-02-03T01:17:32;2.33;;;1.77;;
12814;SDS011;6472;52.328;13.070;2023-02-03T01:20:02;6.13;;;2.07;;
12814;SDS011;6472;52.328;13.070;2023-02-03T01:22:30;3.23;;;2.03;;
12814;SDS011;6472;52.328;13.070;2023-02-03T01:24:58;4.80;;;1.90;;
12814;SDS011;6472;52.328;13.070;2023-02-03T01:27:26;1.90;;;1.73;;
12814;SDS011;6472;52.328;13.070;2023-02-03T01:29:54;5.87;;;1.93;;
12814;SDS011;6472;52.328;13.070;2023-02-03T01:32:23;3.83;;;2.10;;
12814;SDS011;6472;52.328;13.070;2023-02-03T01:34:51;5.83;;;2.30;;
12814;SDS011;6472;52.328;13.070;2023-02-03T01:37:21;2.43;;;1.90;;
12814;SDS011;6472;52.328;13.070;2023-02-03T01:39:49;8.20;;;1.77;;
12814;SDS011;6472;52.328;13.070;2023-02-03T01:42:17;5.80;;;1.57;;
12814;SDS011;6472;52.328;13.070;2023-02-03T01:44:45;2.40;;;1.53;;
12814;SDS011;6472;52.328;13.070;2023-02-03T01:47:17;1.57;;;1.03;;
12814;SDS011;6472;52.328;13.070;2023-02-03T01:49:52;1.37;;;1.27;;
12814;SDS011;6472;52.328;13.070;2023-02-03T01:52:27;2.53;;;1.83;;
12814;SDS011;6472;52.328;13.070;2023-02-03T01:54:58;2.77;;;1.60;;
12814;SDS011;6472;52.328;13.070;2023-02-03T01:57:29;1.93;;;1.47;;
12814;SDS011;6472;52.328;13.070;2023-02-03T02:00:00;2.10;;;1.50;;
12814;SDS011;6472;52.328;13.070;2023-02-03T02:02:31;1.77;;;1.27;;
12814;SDS011;6472;52.328;13.070;2023-02-03T02:05:00;1.33;;;1.20;;
12814;SDS011;6472;52.328;13.070;2023-02-03T02:07:33;1.43;;;0.87;;
12814;SDS011;6472;52.328;13.070;2023-02-03T02:10:04;1.33;;;1.10;;
12814;SDS011;6472;52.328;13.070;2023-02-03T02:12:33;1.60;;;1.30;;
12814;SDS011;6472;52.328;13.070;2023-02-03T02:15:00;1.40;;;1.20;;
12814;SDS011;6472;52.328;13.070;2023-02-03T02:17:35;1.33;;;1.33;;
12814;SDS011;6472;52.328;13.070;2023-02-03T02:20:30;2.67;;;1.40;;
12814;SDS011;6472;52.328;13.070;2023-02-03T02:23:15;1.80;;;1.33;;
12814;SDS011;6472;52.328;13.070;2023-02-03T02:26:13;2.27;;;1.67;;
12814;SDS011;6472;52.328;13.070;2023-02-03T02:29:11;2.30;;;1.63;;
12814;SDS011;6472;52.328;13.070;2023-02-03T02:31:56;1.93;;;1.63;;
12814;SDS011;6472;52.328;13.070;2023-02-03T02:34:35;4.97;;;1.87;;
12814;SDS011;6472;52.328;13.070;2023-02-03T02:37:16;1.63;;;1.53;;
12814;SDS011;6472;52.328;13.070;2023-02-03T02:39:51;2.50;;;1.80;;
12814;SDS011;6472;52.328;13.070;2023-02-03T02:42:25;1.23;;;1.23;;
12814;SDS011;6472;52.328;13.070;2023-02-03T02:45:04;1.30;;;1.20;;
12814;SDS011;6472;52.328;13.070;2023-02-03T02:47:40;2.60;;;1.30;;
12814;SDS011;6472;52.328;13.070;2023-02-03T02:50:10;1.90;;;1.30;;
12814;SDS011;6472;52.328;13.070;2023-02-03T02:52:42;1.33;;;1.27;;
12814;SDS011;6472;52.328;13.070;2023-02-03T02:55:16;1.37;;;1.27;;
12814;SDS011;6472;52.328;13.070;2023-02-03T02:57:50;2.07;;;1.27;;
12814;SDS011;6472;52.328;13.070;2023-02-03T03:00:19;3.50;;;1.10;;
12814;SDS011;6472;52.328;13.070;2023-02-03T03:02:50;1.17;;;1.00;;
12814;SDS011;6472;52.328;13.070;2023-02-03T03:05:18;1.27;;;1.17;;
12814;SDS011;6472;52.328;13.070;2023-02-03T03:07:48;0.87;;;0.80;;
12814;SDS011;6472;52.328;13.070;2023-02-03T03:10:21;0.93;;;0.93;;
12814;SDS011;6472;52.328;13.070;2023-02-03T03:12:55;0.93;;;0.80;;
12814;SDS011;6472;52.328;13.070;2023-02-03T03:15:26;3.03;;;1.57;;
12814;SDS011;6472;52.328;13.070;2023-02-03T03:17:59;1.20;;;1.07;;
12814;SDS011;6472;52.328;13.070;2023-02-03T03:20:32;1.13;;;1.03;;
12814;SDS011;6472;52.328;13.070;2023-02-03T03:23:03;0.87;;;0.87;;
12814;SDS011;6472;52.328;13.070;2023-02-03T03:25:35;0.67;;;0.67;;
12814;SDS011;6472;52.328;13.070;2023-02-03T03:28:09;3.57;;;1.33;;
12814;SDS011;6472;52.328;13.070;2023-02-03T03:30:42;0.83;;;0.70;;
12814;SDS011;6472;52.328;13.070;2023-02-03T03:33:11;1.03;;;0.80;;
12814;SDS011;6472;52.328;13.070;2023-02-03T03:35:41;0.50;;;0.50;;
12814;SDS011;6472;52.328;13.070;2023-02-03T03:38:16;0.93;;;0.90;;
12814;SDS011;6472;52.328;13.070;2023-02-03T03:40:48;1.37;;;1.27;;
12814;SDS011;6472;52.328;13.070;2023-02-03T03:43:22;1.83;;;1.50;;
12814;SDS011;6472;52.328;13.070;2023-02-03T03:45:56;1.67;;;1.07;;
12814;SDS011;6472;52.328;13.070;2023-02-03T03:48:30;2.33;;;1.53;;
12814;SDS011;6472;52.328;13.070;2023-02-03T03:51:02;2.50;;;1.83;;
12814;SDS011;6472;52.328;13.070;2023-02-03T03:53:34;4.40;;;1.63;;
12814;SDS011;6472;52.328;13.070;2023-02-03T03:56:07;2.03;;;1.73;;
12814;SDS011;6472;52.328;13.070;2023-02-03T03:58:40;2.70;;;1.43;;
12814;SDS011;6472;52.328;13.070;2023-02-03T04:01:13;4.90;;;1.83;;
12814;SDS011;6472;52.328;13.070;2023-02-03T04:03:44;2.23;;;1.93;;
12814;SDS011;6472;52.328;13.070;2023-02-03T04:06:14;1.57;;;1.47;;
12814;SDS011;6472;52.328;13.070;2023-02-03T04:08:42;2.77;;;2.07;;
12814;SDS011;6472;52.328;13.070;2023-02-03T04:11:10;1.87;;;1.77;;
12814;SDS011;6472;52.328;13.070;2023-02-03T04:13:59;2.47;;;1.87;;
12814;SDS011;6472;52.328;13.070;2023-02-03T04:16:27;1.93;;;1.83;;
12814;SDS011;6472;52.328;13.070;2023-02-03T04:18:56;2.80;;;2.30;;
12814;SDS011;6472;52.328;13.070;2023-02-03T04:21:24;2.93;;;1.90;;
12814;SDS011;6472;52.328;13.070;2023-02-03T04:23:52;3.23;;;2.67;;
12814;SDS011;6472;52.328;13.070;2023-02-03T04:26:21;2.70;;;2.50;;
12814;SDS011;6472;52.328;13.070;2023-02-03T04:28:50;14.43;;;3.60;;
12814;SDS011;6472;52.328;13.070;2023-02-03T04:31:18;5.10;;;2.77;;
12814;SDS011;6472;52.328;13.070;2023-02-03T04:33:46;6.50;;;3.00;;
12814;SDS011;6472;52.328;13.070;2023-02-03T04:36:15;4.97;;;3.40;;
12814;SDS011;6472;52.328;13.070;2023-02-03T04:38:43;9.63;;;2.90;;
12814;SDS011;6472;52.328;13.070;2023-02-03T04:41:11;4.03;;;2.80;;
12814;SDS011;6472;52.328;13.070;2023-02-03T04:43:39;3.63;;;3.13;;
12814;SDS011;6472;52.328;13.070;2023-02-03T04:46:07;5.60;;;3.23;;
12814;SDS011;6472;52.328;13.070;2023-02-03T04:48:36;7.63;;;4.60;;
12814;SDS011;6472;52.328;13.070;2023-02-03T04:51:05;6.30;;;4.33;;
12814;SDS011;6472;52.328;13.070;2023-02-03T04:53:35;8.23;;;4.00;;
12814;SDS011;6472;52.328;13.070;2023-02-03T04:56:04;6.30;;;4.70;;
12814;SDS011;6472;52.328;13.070;2023-02-03T04:58:32;6.53;;;4.17;;
12814;SDS011;6472;52.328;13.070;2023-02-03T05:01:04;6.50;;;4.07;;
12814;SDS011;6472;52.328;13.070;2023-02-03T05:03:34;7.40;;;4.23;;
12814;SDS011;6472;52.328;13.070;2023-02-03T05:06:03;8.77;;;5.00;;
12814;SDS011;6472;52.328;13.070;2023-02-03T05:08:31;7.07;;;4.63;;
12814;SDS011;6472;52.328;13.070;2023-02-03T05:11:01;8.47;;;4.90;;
12814;SDS011;6472;52.328;13.070;2023-02-03T05:13:31;5.80;;;4.57;;
12814;SDS011;6472;52.328;13.070;2023-02-03T05:15:59;7.53;;;4.47;;
12814;SDS011;6472;52.328;13.070;2023-02-03T05:18:28;7.93;;;4.60;;
12814;SDS011;6472;52.328;13.070;2023-02-03T05:20:56;8.03;;;5.07;;
12814;SDS011;6472;52.328;13.070;2023-02-03T05:23:24;8.03;;;5.17;;
12814;SDS011;6472;52.328;13.070;2023-02-03T05:25:52;10.90;;;5.33;;
12814;SDS011;6472;52.328;13.070;2023-02-03T05:28:21;10.60;;;6.03;;
12814;SDS011;6472;52.328;13.070;2023-02-03T05:30:50;11.57;;;5.80;;
12814;SDS011;6472;52.328;13.070;2023-02-03T05:33:19;8.97;;;5.87;;
12814;SDS011;6472;52.328;13.070;2023-02-03T05:35:48;11.73;;;6.00;;
12814;SDS011;6472;52.328;13.070;2023-02-03T05:38:16;7.30;;;5.33;;
12814;SDS011;6472;52.328;13.070;2023-02-03T05:40:46;14.00;;;6.43;;
12814;SDS011;6472;52.328;13.070;2023-02-03T05:43:33;10.57;;;6.00;;
12814;SDS011;6472;52.328;13.070;2023-02-03T05:46:03;12.90;;;5.20;;
12814;SDS011;6472;52.328;13.070;2023-02-03T05:48:33;10.03;;;6.10;;
12814;SDS011;6472;52.328;13.070;2023-02-03T05:51:02;12.93;;;6.23;;
12814;SDS011;6472;52.328;13.070;2023-02-03T05:53:30;14.23;;;6.37;;
12814;SDS011;6472;52.328;13.070;2023-02-03T05:55:58;13.63;;;6.87;;
12814;SDS011;6472;52.328;13.070;2023-02-03T05:58:26;11.57;;;5.90;;
12814;SDS011;6472;52.328;13.070;2023-02-03T06:00:56;11.50;;;6.67;;
12814;SDS011;6472;52.328;13.070;2023-02-03T06:05:54;18.23;;;7.73;;
12814;SDS011;6472;52.328;13.070;2023-02-03T06:08:22;10.67;;;6.23;;
12814;SDS011;6472;52.328;13.070;2023-02-03T06:10:56;12.30;;;6.33;;
12814;SDS011;6472;52.328;13.070;2023-02-03T06:13:25;8.63;;;5.67;;
12814;SDS011;6472;52.328;13.070;2023-02-03T06:15:55;8.87;;;5.63;;
12814;SDS011;6472;52.328;13.070;2023-02-03T06:18:23;11.10;;;5.40;;
12814;SDS011;6472;52.328;13.070;2023-02-03T06:20:51;14.10;;;6.93;;
12814;SDS011;6472;52.328;13.070;2023-02-03T06:23:19;9.00;;;5.13;;
12814;SDS011;6472;52.328;13.070;2023-02-03T06:25:47;9.13;;;5.70;;
12814;SDS011;6472;52.328;13.070;2023-02-03T06:28:16;10.03;;;5.13;;
12814;SDS011;6472;52.328;13.070;2023-02-03T06:30:48;13.10;;;6.40;;
12814;SDS011;6472;52.328;13.070;2023-02-03T06:33:18;8.37;;;5.70;;
12814;SDS011;6472;52.328;13.070;2023-02-03T06:35:47;11.90;;;5.80;;
12814;SDS011;6472;52.328;13.070;2023-02-03T06:38:15;11.27;;;5.73;;
12814;SDS011;6472;52.328;13.070;2023-02-03T06:40:44;12.50;;;6.27;;
12814;SDS011;6472;52.328;13.070;2023-02-03T06:43:13;11.27;;;6.50;;
12814;SDS011;6472;52.328;13.070;2023-02-03T06:45:43;9.53;;;5.33;;
12814;SDS011;6472;52.328;13.070;2023-02-03T06:48:12;10.90;;;6.70;;
12814;SDS011;6472;52.328;13.070;2023-02-03T06:50:43;11.30;;;6.43;;
12814;SDS011;6472;52.328;13.070;2023-02-03T06:53:14;16.60;;;6.47;;
12814;SDS011;6472;52.328;13.070;2023-02-03T06:55:42;12.97;;;6.53;;
12814;SDS011;6472;52.328;13.070;2023-02-03T06:58:10;17.80;;;6.57;;
12814;SDS011;6472;52.328;13.070;2023-02-03T07:00:38;11.93;;;5.70;;
12814;SDS011;6472;52.328;13.070;2023-02-03T07:03:05;11.10;;;5.83;;
12814;SDS011;6472;52.328;13.070;2023-02-03T07:05:33;11.47;;;6.53;;
12814;SDS011;6472;52.328;13.070;2023-02-03T07:08:03;12.40;;;6.30;;
12814;SDS011;6472;52.328;13.070;2023-02-03T07:10:32;9.77;;;6.07;;
12814;SDS011;6472;52.328;13.070;2023-02-03T07:13:03;9.83;;;6.30;;
12814;SDS011;6472;52.328;13.070;2023-02-03T07:15:31;9.57;;;5.80;;
12814;SDS011;6472;52.328;13.070;2023-02-03T07:18:00;8.67;;;6.17;;
12814;SDS011;6472;52.328;13.070;2023-02-03T07:20:28;16.27;;;6.67;;
12814;SDS011;6472;52.328;13.070;2023-02-03T07:22:57;9.07;;;5.37;;
12814;SDS011;6472;52.328;13.070;2023-02-03T07:25:27;8.90;;;5.47;;
12814;SDS011;6472;52.328;13.070;2023-02-03T07:27:55;9.73;;;5.73;;
12814;SDS011;6472;52.328;13.070;2023-02-03T07:30:23;8.10;;;5.27;;
12814;SDS011;6472;52.328;13.070;2023-02-03T07:32:51;13.07;;;5.93;;
12814;SDS011;6472;52.328;13.070;2023-02-03T07:35:20;12.57;;;6.67;;
12814;SDS011;6472;52.328;13.070;2023-02-03T07:37:48;10.50;;;6.23;;
12814;SDS011;6472;52.328;13.070;2023-02-03T07:40:16;9.87;;;5.07;;
12814;SDS011;6472;52.328;13.070;2023-02-03T07:42:46;11.20;;;5.87;;
12814;SDS011;6472;52.328;13.070;2023-02-03T07:45:16;7.97;;;5.50;;
12814;SDS011;6472;52.328;13.070;2023-02-03T07:47:44;14.53;;;5.97;;
12814;SDS011;6472;52.328;13.070;2023-02-03T07:50:12;7.43;;;4.97;;
12814;SDS011;6472;52.328;13.070;2023-02-03T07:52:40;6.77;;;4.20;;
12814;SDS011;6472;52.328;13.070;2023-02-03T07:55:08;9.20;;;4.63;;
12814;SDS011;6472;52.328;13.070;2023-02-03T07:57:36;9.57;;;5.30;;
12814;SDS011;6472;52.328;13.070;2023-02-03T08:00:11;11.20;;;5.80;;
12814;SDS011;6472;52.328;13.070;2023-02-03T08:02:41;7.70;;;5.20;;
12814;SDS011;6472;52.328;13.070;2023-02-03T08:05:10;6.80;;;5.07;;
12814;SDS011;6472;52.328;13.070;2023-02-03T08:07:38;6.73;;;4.53;;
12814;SDS011;6472;52.328;13.070;2023-02-03T08:10:07;6.13;;;3.73;;
12814;SDS011;6472;52.328;13.070;2023-02-03T08:12:36;6.73;;;4.77;;
12814;SDS011;6472;52.328;13.070;2023-02-03T08:15:05;10.07;;;5.13;;
12814;SDS011;6472;52.328;13.070;2023-02-03T08:17:35;6.33;;;5.00;;
12814;SDS011;6472;52.328;13.070;2023-02-03T08:20:05;4.23;;;3.80;;
12814;SDS011;6472;52.328;13.070;2023-02-03T08:22:34;9.70;;;5.13;;
12814;SDS011;6472;52.328;13.070;2023-02-03T08:25:02;4.60;;;4.13;;
12814;SDS011;6472;52.328;13.070;2023-02-03T08:27:31;7.83;;;4.63;;
12814;SDS011;6472;52.328;13.070;2023-02-03T08:29:59;5.63;;;4.17;;
12814;SDS011;6472;52.328;13.070;2023-02-03T08:32:27;4.60;;;3.33;;
12814;SDS011;6472;52.328;13.070;2023-02-03T08:34:56;7.17;;;3.43;;
12814;SDS011;6472;52.328;13.070;2023-02-03T08:37:24;5.57;;;3.90;;
12814;SDS011;6472;52.328;13.070;2023-02-03T08:39:53;9.80;;;4.60;;
12814;SDS011;6472;52.328;13.070;2023-02-03T08:42:21;6.83;;;4.63;;
12814;SDS011;6472;52.328;13.070;2023-02-03T08:44:49;5.10;;;3.57;;
12814;SDS011;6472;52.328;13.070;2023-02-03T08:47:17;8.77;;;4.70;;
12814;SDS011;6472;52.328;13.070;2023-02-03T08:49:45;4.00;;;3.60;;
12814;SDS011;6472;52.328;13.070;2023-02-03T08:52:15;5.63;;;4.17;;
12814;SDS011;6472;52.328;13.070;2023-02-03T08:54:44;4.23;;;3.37;;
12814;SDS011;6472;52.328;13.070;2023-02-03T08:57:12;5.97;;;3.83;;
12814;SDS011;6472;52.328;13.070;2023-02-03T08:59:41;6.30;;;3.63;;
12814;SDS011;6472;52.328;13.070;2023-02-03T09:02:12;5.10;;;3.63;;
12814;SDS011;6472;52.328;13.070;2023-02-03T09:04:41;7.13;;;3.00;;
12814;SDS011;6472;52.328;13.070;2023-02-03T09:07:10;3.83;;;2.23;;
12814;SDS011;6472;52.328;13.070;2023-02-03T09:09:40;5.03;;;2.63;;
12814;SDS011;6472;52.328;13.070;2023-02-03T09:12:08;7.57;;;2.93;;
12814;SDS011;6472;52.328;13.070;2023-02-03T09:14:38;3.03;;;2.33;;
12814;SDS011;6472;52.328;13.070;2023-02-03T09:17:06;2.60;;;2.40;;
12814;SDS011;6472;52.328;13.070;2023-02-03T09:19:35;6.83;;;3.27;;
12814;SDS011;6472;52.328;13.070;2023-02-03T09:22:04;4.30;;;2.17;;
12814;SDS011;6472;52.328;13.070;2023-02-03T09:24:32;8.73;;;3.63;;
12814;SDS011;6472;52.328;13.070;2023-02-03T09:27:02;3.87;;;2.40;;
12814;SDS011;6472;52.328;13.070;2023-02-03T09:29:30;4.73;;;3.03;;
12814;SDS011;6472;52.328;13.070;2023-02-03T09:31:58;9.27;;;3.30;;
12814;SDS011;6472;52.328;13.070;2023-02-03T09:34:32;3.13;;;2.50;;
12814;SDS011;6472;52.328;13.070;2023-02-03T09:37:00;3.23;;;2.87;;
12814;SDS011;6472;52.328;13.070;2023-02-03T09:39:29;2.80;;;2.60;;
12814;SDS011;6472;52.328;13.070;2023-02-03T09:45:19;3.40;;;2.30;;
12814;SDS011;6472;52.328;13.070;2023-02-03T09:47:51;4.70;;;2.33;;
12814;SDS011;6472;52.328;13.070;2023-02-03T09:50:22;4.53;;;2.67;;
12814;SDS011;6472;52.328;13.070;2023-02-03T09:52:53;5.67;;;3.37;;
12814;SDS011;6472;52.328;13.070;2023-02-03T09:55:24;3.43;;;2.40;;
12814;SDS011;6472;52.328;13.070;2023-02-03T09:58:00;6.07;;;2.87;;
12814;SDS011;6472;52.328;13.070;2023-02-03T10:00:32;3.13;;;2.13;;
12814;SDS011;6472;52.328;13.070;2023-02-03T10:03:05;5.10;;;2.50;;
12814;SDS011;6472;52.328;13.070;2023-02-03T10:05:46;4.63;;;2.90;;
12814;SDS011;6472;52.328;13.070;2023-02-03T10:08:27;4.47;;;2.90;;
12814;SDS011;6472;52.328;13.070;2023-02-03T10:11:05;6.20;;;1.73;;
12814;SDS011;6472;52.328;13.070;2023-02-03T10:13:46;2.30;;;2.10;;
12814;SDS011;6472;52.328;13.070;2023-02-03T10:16:22;2.60;;;2.37;;
12814;SDS011;6472;52.328;13.070;2023-02-03T10:19:02;2.07;;;1.77;;
12814;SDS011;6472;52.328;13.070;2023-02-03T10:21:38;2.13;;;1.67;;
12814;SDS011;6472;52.328;13.070;2023-02-03T10:24:09;1.80;;;1.70;;
12814;SDS011;6472;52.328;13.070;2023-02-03T10:26:48;3.17;;;2.07;;
12814;SDS011;6472;52.328;13.070;2023-02-03T10:29:19;2.20;;;1.27;;
12814;SDS011;6472;52.328;13.070;2023-02-03T10:31:53;7.00;;;2.10;;
12814;SDS011;6472;52.328;13.070;2023-02-03T10:34:24;2.53;;;1.70;;
12814;SDS011;6472;52.328;13.070;2023-02-03T10:36:54;3.00;;;1.80;;
12814;SDS011;6472;52.328;13.070;2023-02-03T10:39:28;3.07;;;2.07;;
12814;SDS011;6472;52.328;13.070;2023-02-03T10:41:59;1.80;;;1.20;;
12814;SDS011;6472;52.328;13.070;2023-02-03T10:44:32;5.90;;;1.90;;
12814;SDS011;6472;52.328;13.070;2023-02-03T10:47:11;3.20;;;2.10;;
12814;SDS011;6472;52.328;13.070;2023-02-03T10:49:48;3.47;;;1.83;;
12814;SDS011;6472;52.328;13.070;2023-02-03T10:52:25;4.60;;;1.70;;
12814;SDS011;6472;52.328;13.070;2023-02-03T10:54:55;2.57;;;1.87;;
12814;SDS011;6472;52.328;13.070;2023-02-03T10:57:26;3.17;;;1.70;;
12814;SDS011;6472;52.328;13.070;2023-02-03T11:00:05;2.77;;;1.93;;
12814;SDS011;6472;52.328;13.070;2023-02-03T11:02:53;1.17;;;1.10;;
12814;SDS011;6472;52.328;13.070;2023-02-03T11:05:23;1.17;;;1.03;;
12814;SDS011;6472;52.328;13.070;2023-02-03T11:07:52;1.47;;;1.13;;
12814;SDS011;6472;52.328;13.070;2023-02-03T11:10:28;1.60;;;0.90;;
12814;SDS011;6472;52.328;13.070;2023-02-03T11:13:11;2.67;;;1.40;;
12814;SDS011;6472;52.328;13.070;2023-02-03T11:15:45;1.33;;;1.23;;
12814;SDS011;6472;52.328;13.070;2023-02-03T11:18:26;1.70;;;1.27;;
12814;SDS011;6472;52.328;13.070;2023-02-03T11:21:05;1.33;;;1.07;;
12814;SDS011;6472;52.328;13.070;2023-02-03T11:23:35;1.73;;;1.30;;
12814;SDS011;6472;52.328;13.070;2023-02-03T11:26:11;2.40;;;1.17;;
12814;SDS011;6472;52.328;13.070;2023-02-03T11:28:44;6.60;;;1.50;;
12814;SDS011;6472;52.328;13.070;2023-02-03T11:31:17;7.63;;;1.93;;
12814;SDS011;6472;52.328;13.070;2023-02-03T11:33:50;2.97;;;1.03;;
12814;SDS011;6472;52.328;13.070;2023-02-03T11:36:30;11.23;;;2.87;;
12814;SDS011;6472;52.328;13.070;2023-02-03T11:39:09;3.47;;;1.40;;
12814;SDS011;6472;52.328;13.070;2023-02-03T11:41:50;2.00;;;0.90;;
12814;SDS011;6472;52.328;13.070;2023-02-03T11:44:20;6.30;;;1.37;;
12814;SDS011;6472;52.328;13.070;2023-02-03T11:46:54;2.83;;;0.80;;
12814;SDS011;6472;52.328;13.070;2023-02-03T11:52:41;1.17;;;0.70;;
12814;SDS011;6472;52.328;13.070;2023-02-03T11:55:17;6.50;;;1.80;;
12814;SDS011;6472;52.328;13.070;2023-02-03T11:58:00;5.43;;;3.00;;
12814;SDS011;6472;52.328;13.070;2023-02-03T12:00:49;6.57;;;1.67;;
12814;SDS011;6472;52.328;13.070;2023-02-03T12:03:38;3.50;;;1.30;;
12814;SDS011;6472;52.328;13.070;2023-02-03T12:06:19;2.87;;;1.83;;
12814;SDS011;6472;52.328;13.070;2023-02-03T12:09:21;7.53;;;2.13;;
12814;SDS011;6472;52.328;13.070;2023-02-03T12:12:00;9.33;;;1.03;;
12814;SDS011;6472;52.328;13.070;2023-02-03T12:14:51;10.63;;;2.00;;
12814;SDS011;6472;52.328;13.070;2023-02-03T12:17:48;9.50;;;1.57;;
12814;SDS011;6472;52.328;13.070;2023-02-03T12:20:30;5.53;;;1.40;;
12814;SDS011;6472;52.328;13.070;2023-02-03T12:23:29;13.17;;;2.23;;
12814;SDS011;6472;52.328;13.070;2023-02-03T12:26:15;6.30;;;1.70;;
12814;SDS011;6472;52.328;13.070;2023-02-03T12:29:00;6.03;;;2.33;;
12814;SDS011;6472;52.328;13.070;2023-02-03T12:31:41;6.53;;;1.77;;
12814;SDS011;6472;52.328;13.070;2023-02-03T12:34:16;4.70;;;1.67;;
12814;SDS011;6472;52.328;13.070;2023-02-03T12:36:54;4.00;;;1.77;;
12814;SDS011;6472;52.328;13.070;2023-02-03T12:39:27;3.93;;;1.47;;
12814;SDS011;6472;52.328;13.070;2023-02-03T12:42:02;9.03;;;2.40;;
12814;SDS011;6472;52.328;13.070;2023-02-03T12:44:43;9.47;;;2.67;;
12814;SDS011;6472;52.328;13.070;2023-02-03T12:47:21;4.23;;;2.10;;
12814;SDS011;6472;52.328;13.070;2023-02-03T12:49:59;15.90;;;2.63;;
12814;SDS011;6472;52.328;13.070;2023-02-03T12:52:35;15.60;;;2.23;;
12814;SDS011;6472;52.328;13.070;2023-02-03T12:55:14;15.13;;;2.37;;
12814;SDS011;6472;52.328;13.070;2023-02-03T12:57:50;7.47;;;1.43;;
12814;SDS011;6472;52.328;13.070;2023-02-03T13:00:31;4.83;;;2.07;;
12814;SDS011;6472;52.328;13.070;2023-02-03T13:06:03;8.20;;;2.00;;
12814;SDS011;6472;52.328;13.070;2023-02-03T13:08:36;20.00;;;2.33;;
12814;SDS011;6472;52.328;13.070;2023-02-03T13:11:10;15.37;;;3.00;;
12814;SDS011;6472;52.328;13.070;2023-02-03T13:13:48;8.60;;;1.90;;
12814;SDS011;6472;52.328;13.070;2023-02-03T13:16:22;6.17;;;2.57;;
12814;SDS011;6472;52.328;13.070;2023-02-03T13:18:57;9.93;;;1.90;;
12814;SDS011;6472;52.328;13.070;2023-02-03T13:21:29;6.33;;;1.33;;
12814;SDS011;6472;52.328;13.070;2023-02-03T13:23:59;3.23;;;1.37;;
12814;SDS011;6472;52.328;13.070;2023-02-03T13:26:56;4.27;;;0.87;;
12814;SDS011;6472;52.328;13.070;2023-02-03T13:29:42;3.57;;;0.80;;
12814;SDS011;6472;52.328;13.070;2023-02-03T13:32:43;0.87;;;0.57;;
12814;SDS011;6472;52.328;13.070;2023-02-03T13:35:45;5.00;;;0.93;;
12814;SDS011;6472;52.328;13.070;2023-02-03T13:38:36;4.57;;;1.23;;
12814;SDS011;6472;52.328;13.070;2023-02-03T13:44:33;0.90;;;0.90;;
12814;SDS011;6472;52.328;13.070;2023-02-03T13:47:04;2.50;;;1.60;;
12814;SDS011;6472;52.328;13.070;2023-02-03T13:49:41;3.87;;;0.93;;
12814;SDS011;6472;52.328;13.070;2023-02-03T13:52:22;6.33;;;0.93;;
12814;SDS011;6472;52.328;13.070;2023-02-03T13:54:52;10.63;;;1.80;;
12814;SDS011;6472;52.328;13.070;2023-02-03T13:57:23;6.67;;;1.20;;
12814;SDS011;6472;52.328;13.070;2023-02-03T14:00:02;4.00;;;1.20;;
12814;SDS011;6472;52.328;13.070;2023-02-03T14:02:41;7.57;;;1.23;;
12814;SDS011;6472;52.328;13.070;2023-02-03T14:11:38;11.50;;;2.10;;
12814;SDS011;6472;52.328;13.070;2023-02-03T14:20:36;8.63;;;2.13;;
12814;SDS011;6472;52.328;13.070;2023-02-03T14:23:18;9.23;;;2.57;;
12814;SDS011;6472;52.328;13.070;2023-02-03T14:26:13;12.23;;;2.87;;
12814;SDS011;6472;52.328;13.070;2023-02-03T14:28:51;15.27;;;2.90;;
12814;SDS011;6472;52.328;13.070;2023-02-03T14:31:33;16.57;;;3.47;;
12814;SDS011;6472;52.328;13.070;2023-02-03T14:34:34;8.97;;;1.60;;
12814;SDS011;6472;52.328;13.070;2023-02-03T14:37:13;10.37;;;2.57;;
12814;SDS011;6472;52.328;13.070;2023-02-03T14:40:02;7.47;;;2.77;;
12814;SDS011;6472;52.328;13.070;2023-02-03T14:42:52;2.93;;;1.53;;
12814;SDS011;6472;52.328;13.070;2023-02-03T14:56:14;7.03;;;2.23;;
12814;SDS011;6472;52.328;13.070;2023-02-03T14:58:51;15.17;;;2.77;;
12814;SDS011;6472;52.328;13.070;2023-02-03T15:01:24;9.30;;;2.10;;
12814;SDS011;6472;52.328;13.070;2023-02-03T15:06:51;9.17;;;2.40;;
12814;SDS011;6472;52.328;13.070;2023-02-03T15:09:22;17.50;;;2.97;;
12814;SDS011;6472;52.328;13.070;2023-02-03T15:11:55;11.40;;;2.27;;
12814;SDS011;6472;52.328;13.070;2023-02-03T15:14:24;8.43;;;1.70;;
12814;SDS011;6472;52.328;13.070;2023-02-03T15:16:54;12.77;;;2.03;;
12814;SDS011;6472;52.328;13.070;2023-02-03T15:19:25;10.07;;;2.67;;
12814;SDS011;6472;52.328;13.070;2023-02-03T15:21:55;12.57;;;2.20;;
12814;SDS011;6472;52.328;13.070;2023-02-03T15:24:23;5.33;;;2.03;;
12814;SDS011;6472;52.328;13.070;2023-02-03T15:26:52;9.27;;;1.70;;
12814;SDS011;6472;52.328;13.070;2023-02-03T15:32:08;10.83;;;2.40;;
12814;SDS011;6472;52.328;13.070;2023-02-03T15:34:42;5.23;;;2.00;;
12814;SDS011;6472;52.328;13.070;2023-02-03T15:37:15;6.90;;;1.60;;
12814;SDS011;6472;52.328;13.070;2023-02-03T15:39:48;6.00;;;1.50;;
12814;SDS011;6472;52.328;13.070;2023-02-03T15:42:24;10.77;;;2.37;;
12814;SDS011;6472;52.328;13.070;2023-02-03T15:44:58;8.50;;;2.03;;
12814;SDS011;6472;52.328;13.070;2023-02-03T15:47:32;10.73;;;1.93;;
12814;SDS011;6472;52.328;13.070;2023-02-03T15:50:04;7.13;;;2.23;;
12814;SDS011;6472;52.328;13.070;2023-02-03T15:52:41;15.43;;;2.13;;
12814;SDS011;6472;52.328;13.070;2023-02-03T15:55:14;8.30;;;1.50;;
12814;SDS011;6472;52.328;13.070;2023-02-03T15:57:49;8.57;;;2.37;;
12814;SDS011;6472;52.328;13.070;2023-02-03T16:00:28;8.27;;;2.43;;
12814;SDS011;6472;52.328;13.070;2023-02-03T16:02:59;5.50;;;1.70;;